Time;durP1;ratioP1;P1;durP2;ratioP2;P2;SDS_P1;SDS_P2;PMS_P1;PMS_P2;Temp;Humidity;BMP_temperature;BMP_pressure;BME280_temperature;BME280_humidity;BME280_pressure;Samples;Min_cycle;Max_cycle;Signal;HPM_P1;HPM_P2
2023/12/30 00:00:24;;;;;;;16.85;2.30;;;7.10;99.90;;;;;;5062980;28;20226;-49
2023/12/30 00:02:51;;;;;;;19.33;2.72;;;7.10;99.90;;;;;;5061930;28;20259;-49
2023/12/30 00:05:17;;;;;;;13.43;2.60;;;7.10;99.90;;;;;;5059036;28;20198;-47
2023/12/30 00:07:44;;;;;;;15.68;2.35;;;7.00;99.90;;;;;;5063754;28;20213;-49
2023/12/30 00:10:10;;;;;;;11.73;2.47;;;6.90;99.90;;;;;;5061509;28;20191;-46
2023/12/30 00:12:36;;;;;;;13.55;3.00;;;6.90;99.90;;;;;;5060718;28;20225;-44
2023/12/30 00:15:03;;;;;;;16.38;2.90;;;6.90;99.90;;;;;;5062290;28;20213;-47
2023/12/30 00:17:29;;;;;;;17.30;2.90;;;6.90;99.90;;;;;;5061883;28;20197;-49
2023/12/30 00:19:55;;;;;;;12.02;2.15;;;6.90;99.90;;;;;;5061627;28;20431;-49
2023/12/30 00:22:21;;;;;;;15.35;2.22;;;6.80;99.90;;;;;;5062464;28;20198;-43
2023/12/30 00:24:47;;;;;;;13.40;2.35;;;6.80;99.90;;;;;;5061667;28;20196;-48
2023/12/30 00:27:13;;;;;;;13.02;2.38;;;6.80;99.90;;;;;;5062119;28;20269;-46
2023/12/30 00:29:39;;;;;;;11.93;2.42;;;6.80;99.90;;;;;;5059157;28;20506;-46
2023/12/30 00:32:07;;;;;;;22.08;2.70;;;6.80;99.90;;;;;;5058345;28;20182;-50
2023/12/30 00:34:34;;;;;;;18.52;2.70;;;6.80;99.90;;;;;;5061680;28;20186;-46
2023/12/30 00:37:00;;;;;;;12.15;2.75;;;6.80;99.90;;;;;;5061498;28;20198;-49
2023/12/30 00:39:26;;;;;;;11.63;2.35;;;6.80;99.90;;;;;;5061947;28;20182;-47
2023/12/30 00:41:52;;;;;;;11.50;2.22;;;6.80;99.90;;;;;;5062668;28;20311;-44
2023/12/30 00:44:18;;;;;;;14.25;2.40;;;6.80;99.90;;;;;;5061027;28;20205;-45
2023/12/30 00:46:45;;;;;;;11.25;2.53;;;6.80;99.90;;;;;;5061543;28;20301;-47
2023/12/30 00:49:12;;;;;;;12.25;2.63;;;6.80;99.90;;;;;;5060667;28;20286;-49
2023/12/30 00:51:37;;;;;;;13.95;2.85;;;6.80;99.90;;;;;;5060958;28;20186;-50
2023/12/30 00:54:03;;;;;;;13.57;2.55;;;6.80;99.90;;;;;;5061648;28;20187;-48
2023/12/30 00:56:29;;;;;;;11.38;2.70;;;6.80;99.90;;;;;;5060540;28;20193;-49
2023/12/30 00:58:56;;;;;;;14.70;2.65;;;6.90;99.90;;;;;;5043398;28;20199;-50
2023/12/30 01:01:22;;;;;;;12.38;2.05;;;6.90;99.90;;;;;;5057183;28;20191;-46
2023/12/30 01:03:48;;;;;;;10.95;2.30;;;6.90;99.90;;;;;;5077825;28;20194;-50
2023/12/30 01:06:14;;;;;;;16.33;2.80;;;6.90;99.90;;;;;;5061889;28;20210;-51
2023/12/30 01:08:40;;;;;;;14.13;2.63;;;6.90;99.90;;;;;;5059615;28;20233;-49
2023/12/30 01:11:06;;;;;;;13.98;2.80;;;6.90;99.90;;;;;;5062180;28;20210;-44
2023/12/30 01:13:32;;;;;;;16.98;2.88;;;6.90;99.90;;;;;;5043278;28;20183;-47
2023/12/30 01:15:57;;;;;;;16.45;2.10;;;6.80;99.90;;;;;;5060937;28;20566;-45
2023/12/30 01:18:24;;;;;;;12.88;2.67;;;6.80;99.90;;;;;;5076304;28;20630;-48
2023/12/30 01:20:51;;;;;;;10.15;2.78;;;6.80;99.90;;;;;;5057809;28;20203;-47
2023/12/30 01:23:16;;;;;;;12.90;3.03;;;6.80;99.90;;;;;;5059195;28;20220;-49
2023/12/30 01:25:42;;;;;;;16.13;2.42;;;6.80;99.90;;;;;;5062764;28;20182;-48
2023/12/30 01:28:09;;;;;;;14.43;2.60;;;6.80;99.90;;;;;;5062133;28;20218;-46
2023/12/30 01:30:36;;;;;;;7.03;2.08;;;6.80;99.90;;;;;;5063701;28;21127;-49
2023/12/30 01:33:04;;;;;;;10.77;2.15;;;6.80;99.90;;;;;;5064378;28;20213;-48
2023/12/30 01:35:30;;;;;;;17.35;2.35;;;6.80;99.90;;;;;;5064657;28;20785;-48
2023/12/30 01:37:56;;;;;;;14.40;2.60;;;6.80;99.90;;;;;;5064497;28;20223;-49
2023/12/30 01:40:24;;;;;;;11.35;2.45;;;6.80;99.90;;;;;;5080750;28;20226;-52
2023/12/30 01:42:50;;;;;;;15.25;2.50;;;6.80;99.90;;;;;;5062545;28;20714;-46
2023/12/30 01:45:16;;;;;;;12.63;2.40;;;6.80;99.90;;;;;;5064316;28;20193;-45
2023/12/30 01:47:42;;;;;;;16.00;2.67;;;6.80;99.90;;;;;;5063792;28;20214;-52
2023/12/30 01:50:09;;;;;;;11.85;2.75;;;6.80;99.90;;;;;;5063972;28;20194;-44
2023/12/30 01:52:36;;;;;;;15.90;3.03;;;6.80;99.90;;;;;;5063119;28;20678;-51
2023/12/30 01:55:03;;;;;;;15.55;2.35;;;6.80;99.90;;;;;;5065351;28;20175;-50
2023/12/30 01:57:30;;;;;;;12.00;2.83;;;6.80;99.90;;;;;;5063734;28;20190;-43
2023/12/30 01:59:57;;;;;;;18.90;3.08;;;6.90;99.90;;;;;;5063289;28;20187;-46
2023/12/30 02:02:24;;;;;;;20.27;2.80;;;6.90;99.90;;;;;;5047336;28;20720;-47
2023/12/30 02:04:50;;;;;;;13.30;2.55;;;7.00;99.90;;;;;;5062800;28;20206;-47
2023/12/30 02:07:16;;;;;;;16.77;3.13;;;7.00;99.90;;;;;;5064133;28;20182;-45
2023/12/30 02:09:42;;;;;;;14.45;2.58;;;7.00;99.90;;;;;;5063366;28;20186;-45
2023/12/30 02:12:08;;;;;;;12.57;2.70;;;7.10;99.90;;;;;;5062001;28;20218;-45
2023/12/30 02:14:34;;;;;;;16.77;2.58;;;7.10;99.90;;;;;;5063223;28;20255;-51
2023/12/30 02:17:00;;;;;;;11.43;2.13;;;7.10;99.90;;;;;;5063220;28;20198;-50
2023/12/30 02:19:26;;;;;;;9.15;2.03;;;7.10;99.90;;;;;;5062366;28;20191;-48
2023/12/30 02:21:52;;;;;;;16.02;2.75;;;7.20;99.90;;;;;;5062902;28;20221;-49
2023/12/30 02:24:21;;;;;;;15.85;2.70;;;7.20;99.90;;;;;;5063708;28;20723;-44
2023/12/30 02:26:47;;;;;;;16.52;2.55;;;7.20;99.90;;;;;;5077774;28;20209;-47
2023/12/30 02:29:14;;;;;;;12.77;2.60;;;7.20;99.90;;;;;;5062446;28;20320;-46
2023/12/30 02:31:46;;;;;;;12.52;2.45;;;7.30;99.90;;;;;;5078501;28;20190;-51
2023/12/30 02:34:17;;;;;;;18.08;2.47;;;7.30;99.90;;;;;;5063469;28;20685;-51
2023/12/30 02:36:47;;;;;;;11.55;2.55;;;7.40;99.90;;;;;;5063858;28;20576;-46
2023/12/30 02:39:14;;;;;;;13.50;2.63;;;7.40;99.90;;;;;;5061471;28;20187;-49
2023/12/30 02:41:41;;;;;;;15.23;2.65;;;7.40;99.90;;;;;;5063444;28;20566;-46
2023/12/30 02:44:07;;;;;;;15.75;2.53;;;7.50;99.90;;;;;;5062225;28;20190;-43
2023/12/30 02:46:33;;;;;;;12.32;2.20;;;7.50;99.90;;;;;;5063290;28;20211;-44
2023/12/30 02:49:03;;;;;;;12.77;2.35;;;7.60;99.90;;;;;;5062337;28;20709;-47
2023/12/30 02:51:29;;;;;;;14.25;2.20;;;7.60;99.90;;;;;;5063871;28;20187;-49
2023/12/30 02:53:55;;;;;;;14.27;2.58;;;7.60;99.90;;;;;;5061668;28;20301;-47
2023/12/30 02:56:25;;;;;;;10.05;2.25;;;7.60;99.90;;;;;;5061911;28;20215;-48
2023/12/30 02:58:56;;;;;;;11.27;2.47;;;7.60;99.90;;;;;;5054242;28;20190;-52
2023/12/30 03:01:29;;;;;;;16.30;2.30;;;7.70;99.90;;;;;;5079077;28;20190;-47
2023/12/30 03:03:58;;;;;;;12.02;2.38;;;7.70;99.90;;;;;;5062293;28;20252;-45
2023/12/30 03:06:24;;;;;;;17.70;2.20;;;7.70;99.90;;;;;;5062571;28;20185;-45
2023/12/30 03:08:51;;;;;;;13.27;2.95;;;7.70;99.90;;;;;;5061767;28;20233;-50
2023/12/30 03:11:17;;;;;;;20.58;2.33;;;7.70;99.90;;;;;;5063102;28;20196;-44
2023/12/30 03:13:44;;;;;;;18.65;2.25;;;7.80;99.90;;;;;;5062268;28;20251;-47
2023/12/30 03:16:16;;;;;;;13.02;2.28;;;7.80;99.90;;;;;;5062613;28;20182;-49
2023/12/30 03:18:43;;;;;;;14.82;2.85;;;7.90;99.90;;;;;;5060929;28;20271;-49
2023/12/30 03:21:11;;;;;;;12.65;2.30;;;7.90;99.90;;;;;;5077064;28;20186;-50
2023/12/30 03:23:38;;;;;;;13.68;2.40;;;7.90;99.90;;;;;;5063314;28;20190;-47
2023/12/30 03:26:05;;;;;;;12.10;2.85;;;7.90;99.90;;;;;;5062584;28;20248;-53
2023/12/30 03:28:31;;;;;;;18.58;2.65;;;7.90;99.90;;;;;;5061432;28;20591;-47
2023/12/30 03:30:57;;;;;;;19.30;2.70;;;8.00;99.90;;;;;;5062606;28;20187;-45
2023/12/30 03:33:24;;;;;;;11.10;2.20;;;8.00;99.90;;;;;;5061791;28;20236;-46
2023/12/30 03:35:52;;;;;;;9.77;1.88;;;7.90;99.90;;;;;;5060873;28;20195;-48
2023/12/30 03:38:18;;;;;;;11.65;2.35;;;8.00;99.90;;;;;;5060974;28;20201;-50
2023/12/30 03:40:44;;;;;;;11.80;2.47;;;8.00;99.90;;;;;;5063104;28;20191;-47
2023/12/30 03:43:10;;;;;;;13.68;2.60;;;8.00;99.90;;;;;;5043946;28;20261;-46
2023/12/30 03:45:37;;;;;;;17.88;2.80;;;8.00;99.90;;;;;;5058821;28;20662;-48
2023/12/30 03:48:03;;;;;;;13.27;2.53;;;7.90;99.90;;;;;;5041835;28;20218;-46
2023/12/30 03:50:30;;;;;;;16.88;3.05;;;8.00;99.90;;;;;;5059583;28;20516;-48
2023/12/30 03:52:55;;;;;;;13.00;2.38;;;8.00;99.90;;;;;;5060703;28;20189;-50
2023/12/30 03:55:21;;;;;;;15.23;2.90;;;8.00;99.90;;;;;;5062482;28;20269;-49
2023/12/30 03:57:47;;;;;;;11.60;2.40;;;8.00;99.90;;;;;;5061607;28;20198;-45
2023/12/30 04:00:14;;;;;;;18.40;2.63;;;8.00;99.90;;;;;;5061364;28;20262;-45
2023/12/30 04:02:40;;;;;;;15.90;2.63;;;8.00;99.90;;;;;;5061572;28;20186;-46
2023/12/30 04:05:06;;;;;;;15.77;2.78;;;7.90;99.90;;;;;;5076866;28;20182;-52
2023/12/30 04:07:33;;;;;;;15.20;2.40;;;7.90;99.90;;;;;;5044519;28;20277;-51
2023/12/30 04:09:59;;;;;;;15.70;2.92;;;8.00;99.90;;;;;;5061736;28;20287;-49
2023/12/30 04:12:25;;;;;;;18.95;2.50;;;7.90;99.90;;;;;;5060617;28;20677;-50
2023/12/30 04:14:51;;;;;;;9.55;2.25;;;8.00;99.90;;;;;;5061268;28;20185;-47
2023/12/30 04:17:17;;;;;;;14.32;2.53;;;7.90;99.90;;;;;;5077250;28;20544;-44
2023/12/30 04:19:43;;;;;;;15.98;2.67;;;7.90;99.90;;;;;;5077033;28;20198;-46
2023/12/30 04:22:09;;;;;;;13.18;2.40;;;7.90;99.90;;;;;;5060012;28;20191;-49
2023/12/30 04:24:35;;;;;;;16.38;2.80;;;7.80;99.90;;;;;;5061118;28;20208;-47
2023/12/30 04:27:01;;;;;;;17.98;3.05;;;7.80;99.90;;;;;;5060127;28;20621;-50
2023/12/30 04:29:28;;;;;;;17.20;2.85;;;7.70;99.90;;;;;;5060316;28;20214;-51
2023/12/30 04:31:54;;;;;;;7.75;1.75;;;7.70;99.90;;;;;;5076912;28;20557;-49
2023/12/30 04:34:20;;;;;;;15.60;2.45;;;7.70;99.90;;;;;;5060338;28;20187;-51
2023/12/30 04:36:46;;;;;;;11.63;2.40;;;7.70;99.90;;;;;;5060646;28;20190;-50
2023/12/30 04:39:12;;;;;;;15.38;2.88;;;7.70;99.90;;;;;;5059903;28;20566;-52
2023/12/30 04:41:38;;;;;;;12.85;2.28;;;7.70;99.90;;;;;;5062367;28;20229;-48
2023/12/30 04:44:04;;;;;;;11.90;2.55;;;7.80;99.90;;;;;;5076606;28;21340;-49
2023/12/30 04:46:30;;;;;;;17.38;2.50;;;7.80;99.90;;;;;;5043782;28;20329;-46
2023/12/30 04:48:56;;;;;;;23.15;3.13;;;7.80;99.90;;;;;;5039161;28;20297;-49
2023/12/30 04:51:22;;;;;;;15.80;3.00;;;7.80;99.90;;;;;;5061088;28;20659;-48
2023/12/30 04:53:48;;;;;;;9.27;2.13;;;7.90;99.90;;;;;;5076609;28;20221;-50
2023/12/30 04:56:18;;;;;;;27.73;3.00;;;7.90;99.90;;;;;;5059936;28;20655;-50
2023/12/30 04:58:44;;;;;;;17.00;2.80;;;7.90;99.90;;;;;;5062022;28;20524;-46
2023/12/30 05:01:13;;;;;;;16.25;2.90;;;7.90;99.90;;;;;;5058942;28;20191;-51
2023/12/30 05:03:41;;;;;;;21.35;2.47;;;7.90;99.90;;;;;;5064509;28;20183;-49
2023/12/30 05:06:07;;;;;;;13.88;2.92;;;8.00;99.90;;;;;;5064290;28;20186;-54
2023/12/30 05:08:33;;;;;;;13.43;2.95;;;8.00;99.90;;;;;;5064441;28;20581;-45
2023/12/30 05:10:59;;;;;;;15.43;2.95;;;8.00;99.90;;;;;;5046981;28;20278;-46
2023/12/30 05:13:25;;;;;;;17.17;2.75;;;8.00;99.90;;;;;;5065128;28;20190;-47
2023/12/30 05:15:51;;;;;;;10.88;2.05;;;8.00;99.90;;;;;;5064540;28;20256;-45
2023/12/30 05:18:17;;;;;;;12.88;2.13;;;8.00;99.90;;;;;;5064157;28;20214;-50
2023/12/30 05:20:43;;;;;;;14.75;2.95;;;8.00;99.90;;;;;;5065597;28;20216;-47
2023/12/30 05:23:09;;;;;;;15.68;2.80;;;8.00;99.90;;;;;;5063479;28;20186;-51
2023/12/30 05:25:35;;;;;;;17.58;2.35;;;8.00;99.90;;;;;;5063869;28;20249;-47
2023/12/30 05:28:01;;;;;;;19.63;2.60;;;8.00;99.90;;;;;;5064519;28;20218;-53
2023/12/30 05:30:28;;;;;;;14.05;2.55;;;8.00;99.90;;;;;;5065458;28;20210;-49
2023/12/30 05:32:54;;;;;;;15.63;2.88;;;8.00;99.90;;;;;;5065125;28;20733;-53
2023/12/30 05:35:20;;;;;;;18.15;2.83;;;8.00;99.90;;;;;;5064138;28;20178;-47
2023/12/30 05:37:46;;;;;;;15.07;2.45;;;8.00;99.90;;;;;;5065192;28;20228;-47
2023/12/30 05:40:12;;;;;;;13.95;2.40;;;8.00;99.90;;;;;;5063645;28;21445;-48
2023/12/30 05:42:38;;;;;;;13.63;2.22;;;8.00;99.90;;;;;;5045705;28;20721;-47
2023/12/30 05:45:04;;;;;;;15.80;2.88;;;8.00;99.90;;;;;;5065391;28;20190;-53
2023/12/30 05:47:30;;;;;;;14.45;2.00;;;8.00;99.90;;;;;;5065102;28;20195;-45
2023/12/30 05:49:56;;;;;;;13.93;2.22;;;8.00;99.90;;;;;;5062130;28;20199;-51
2023/12/30 05:52:22;;;;;;;14.65;2.45;;;8.00;99.90;;;;;;5063946;28;20278;-48
2023/12/30 05:54:48;;;;;;;10.82;2.30;;;7.90;99.90;;;;;;5064067;28;20185;-48
2023/12/30 05:57:14;;;;;;;15.20;2.80;;;8.00;99.90;;;;;;5078456;28;20648;-54
2023/12/30 05:59:41;;;;;;;14.77;2.45;;;7.90;99.90;;;;;;5063329;28;20278;-50
2023/12/30 06:02:07;;;;;;;14.52;2.65;;;7.90;99.90;;;;;;5063647;28;20533;-52
2023/12/30 06:04:33;;;;;;;15.63;2.38;;;7.90;99.90;;;;;;5063769;28;20198;-49
2023/12/30 06:06:59;;;;;;;13.82;2.60;;;7.90;99.90;;;;;;5063468;28;20661;-53
2023/12/30 06:09:25;;;;;;;15.07;2.60;;;7.90;99.90;;;;;;5064848;28;20218;-51
2023/12/30 06:11:51;;;;;;;14.20;2.20;;;7.90;99.90;;;;;;5062293;28;20677;-49
2023/12/30 06:14:17;;;;;;;14.05;2.47;;;7.90;99.90;;;;;;5062912;28;20183;-52
2023/12/30 06:16:43;;;;;;;17.35;2.78;;;7.90;99.90;;;;;;5062490;28;20620;-51
2023/12/30 06:19:08;;;;;;;20.70;2.95;;;7.90;99.90;;;;;;5062906;28;20191;-52
2023/12/30 06:21:34;;;;;;;13.52;2.33;;;8.00;99.90;;;;;;5064045;28;20338;-51
2023/12/30 06:24:00;;;;;;;18.13;2.67;;;8.00;99.90;;;;;;5062236;28;20193;-49
2023/12/30 06:26:26;;;;;;;15.30;2.83;;;8.00;99.90;;;;;;5063389;28;20255;-53
2023/12/30 06:28:52;;;;;;;15.40;2.55;;;8.00;99.90;;;;;;5063205;28;20206;-46
2023/12/30 06:31:18;;;;;;;15.85;2.50;;;8.00;99.90;;;;;;5063941;28;20186;-48
2023/12/30 06:33:43;;;;;;;16.38;2.38;;;8.00;99.90;;;;;;5063350;28;20614;-54
2023/12/30 06:36:11;;;;;;;17.77;2.72;;;8.00;99.90;;;;;;5062663;28;20675;-47
2023/12/30 06:38:37;;;;;;;13.88;2.40;;;8.00;99.90;;;;;;5062784;28;20254;-45
2023/12/30 06:41:06;;;;;;;13.50;2.40;;;8.00;99.90;;;;;;5063617;28;20190;-48
2023/12/30 06:43:32;;;;;;;15.57;2.95;;;8.00;99.90;;;;;;5062967;28;20553;-53
2023/12/30 06:45:58;;;;;;;23.08;2.83;;;8.00;99.90;;;;;;5063504;28;20275;-51
2023/12/30 06:48:24;;;;;;;12.93;2.30;;;8.00;99.90;;;;;;5063128;28;20289;-50
2023/12/30 06:50:50;;;;;;;14.55;2.95;;;8.00;99.90;;;;;;5063204;28;20186;-50
2023/12/30 06:53:16;;;;;;;17.50;2.45;;;8.00;99.90;;;;;;5061062;28;20189;-44
2023/12/30 06:55:42;;;;;;;14.48;2.70;;;7.90;99.90;;;;;;5063868;28;20190;-45
2023/12/30 06:58:08;;;;;;;14.27;2.35;;;7.90;99.90;;;;;;5062945;28;20210;-49
2023/12/30 07:00:34;;;;;;;11.55;2.20;;;7.90;99.90;;;;;;5061535;28;20186;-49
2023/12/30 07:02:59;;;;;;;17.48;2.83;;;7.80;99.90;;;;;;5059533;28;20198;-51
2023/12/30 07:05:25;;;;;;;14.85;2.95;;;7.80;99.90;;;;;;5063849;28;20194;-53
2023/12/30 07:07:51;;;;;;;15.25;2.42;;;7.80;99.90;;;;;;5078302;28;20293;-50
2023/12/30 07:10:17;;;;;;;14.60;2.55;;;7.80;99.90;;;;;;5063155;28;20187;-47
2023/12/30 07:12:43;;;;;;;16.50;3.25;;;7.80;99.90;;;;;;5061651;28;20190;-52
2023/12/30 07:15:09;;;;;;;19.90;2.67;;;7.70;99.90;;;;;;5061283;28;20264;-45
2023/12/30 07:17:35;;;;;;;17.77;3.10;;;7.80;99.90;;;;;;5063007;28;20283;-52
2023/12/30 07:20:02;;;;;;;18.33;2.30;;;7.80;99.90;;;;;;5063243;28;20197;-44
2023/12/30 07:22:27;;;;;;;16.92;2.42;;;7.80;99.90;;;;;;5062631;28;20185;-50
2023/12/30 07:24:53;;;;;;;19.15;3.10;;;7.80;99.90;;;;;;5062301;28;20190;-46
2023/12/30 07:27:19;;;;;;;21.58;3.25;;;7.80;99.90;;;;;;5064243;28;20194;-50
2023/12/30 07:29:45;;;;;;;12.05;2.17;;;7.80;99.90;;;;;;5061220;28;20206;-50
2023/12/30 07:32:11;;;;;;;14.98;2.38;;;7.80;99.90;;;;;;5061701;28;20285;-47
2023/12/30 07:34:37;;;;;;;16.90;2.65;;;7.80;99.90;;;;;;5063229;28;20182;-48
2023/12/30 07:37:04;;;;;;;17.45;2.88;;;7.80;99.90;;;;;;5062199;28;20238;-52
2023/12/30 07:39:32;;;;;;;20.05;3.05;;;7.80;99.90;;;;;;5061325;28;20191;-48
2023/12/30 07:41:59;;;;;;;17.55;2.85;;;7.80;99.90;;;;;;5061088;28;20234;-45
2023/12/30 07:44:26;;;;;;;14.02;2.20;;;7.80;99.90;;;;;;5061338;28;20186;-47
2023/12/30 07:46:52;;;;;;;17.50;3.10;;;7.80;99.90;;;;;;5061531;28;20267;-46
2023/12/30 07:49:18;;;;;;;13.25;2.72;;;7.80;99.90;;;;;;5062646;28;21751;-48
2023/12/30 07:51:45;;;;;;;14.75;3.45;;;7.80;99.90;;;;;;5061482;28;20190;-50
2023/12/30 07:54:12;;;;;;;17.80;2.53;;;7.80;99.90;;;;;;5061779;28;21635;-50
2023/12/30 07:56:38;;;;;;;18.23;2.88;;;7.80;99.90;;;;;;5061641;28;20621;-45
2023/12/30 07:59:04;;;;;;;13.00;2.33;;;7.80;99.90;;;;;;5062759;28;20187;-48
2023/12/30 08:01:30;;;;;;;13.38;2.50;;;7.80;99.90;;;;;;5061366;28;20186;-50
2023/12/30 08:03:56;;;;;;;16.75;2.90;;;7.90;99.90;;;;;;5061917;28;20194;-49
2023/12/30 08:06:22;;;;;;;13.55;2.47;;;7.90;99.90;;;;;;5062490;28;20232;-50
2023/12/30 08:08:48;;;;;;;14.75;2.53;;;7.90;99.90;;;;;;5063814;28;20666;-52
2023/12/30 08:11:14;;;;;;;17.35;2.53;;;7.80;99.90;;;;;;5061827;28;20187;-48
2023/12/30 08:13:40;;;;;;;18.50;2.88;;;7.80;99.90;;;;;;5060904;28;20186;-47
2023/12/30 08:16:06;;;;;;;12.93;2.80;;;7.80;99.90;;;;;;5062393;28;20639;-54
2023/12/30 08:18:32;;;;;;;15.93;2.50;;;7.70;99.90;;;;;;5060706;28;20194;-48
2023/12/30 08:20:57;;;;;;;14.93;2.45;;;7.70;99.90;;;;;;5062429;28;20271;-48
2023/12/30 08:23:23;;;;;;;14.38;2.30;;;7.70;99.90;;;;;;5063022;28;20651;-47
2023/12/30 08:25:50;;;;;;;14.02;2.67;;;7.70;99.90;;;;;;5061607;28;20182;-51
2023/12/30 08:28:16;;;;;;;13.27;2.67;;;7.70;99.90;;;;;;5059861;28;20214;-50
2023/12/30 08:30:42;;;;;;;14.48;2.33;;;7.70;99.90;;;;;;5062577;28;20437;-51
2023/12/30 08:33:09;;;;;;;16.75;2.42;;;7.70;99.90;;;;;;5061125;28;20195;-45
2023/12/30 08:35:35;;;;;;;20.20;2.70;;;7.70;99.90;;;;;;5062593;28;20582;-52
2023/12/30 08:38:01;;;;;;;14.05;2.85;;;7.70;99.90;;;;;;5067051;28;20252;-47
2023/12/30 08:40:27;;;;;;;19.70;2.70;;;7.70;99.90;;;;;;5066081;28;20186;-48
2023/12/30 08:42:54;;;;;;;15.77;2.90;;;7.70;99.90;;;;;;5064910;28;20239;-50
2023/12/30 08:45:20;;;;;;;14.15;2.70;;;7.70;99.90;;;;;;5067103;28;20603;-49
2023/12/30 08:47:46;;;;;;;17.05;2.30;;;7.70;99.90;;;;;;5064093;28;20901;-50
2023/12/30 08:50:13;;;;;;;20.63;3.25;;;7.70;99.90;;;;;;5063825;28;20178;-50
2023/12/30 08:52:40;;;;;;;13.38;2.30;;;7.70;99.90;;;;;;5082085;28;20186;-45
2023/12/30 08:55:10;;;;;;;13.20;2.60;;;7.70;99.90;;;;;;5066181;28;20651;-48
2023/12/30 08:57:37;;;;;;;14.25;2.22;;;7.70;99.90;;;;;;5063923;28;20605;-48
2023/12/30 09:00:09;;;;;;;19.08;2.85;;;7.70;99.90;;;;;;5066080;28;20190;-47
2023/12/30 09:02:36;;;;;;;14.80;2.60;;;7.70;99.90;;;;;;5064415;28;20342;-53
2023/12/30 09:05:02;;;;;;;18.80;2.47;;;7.70;99.90;;;;;;5065519;28;20553;-47
2023/12/30 09:07:29;;;;;;;16.77;2.78;;;7.80;99.90;;;;;;5065905;28;20189;-52
2023/12/30 09:09:56;;;;;;;17.33;2.60;;;7.70;99.90;;;;;;5063967;28;20187;-46
2023/12/30 09:12:22;;;;;;;12.23;2.50;;;7.70;99.90;;;;;;5065212;28;20669;-51
2023/12/30 09:14:48;;;;;;;18.00;2.60;;;7.70;99.90;;;;;;5063546;28;20199;-49
2023/12/30 09:17:14;;;;;;;20.10;2.97;;;7.80;99.90;;;;;;5067005;28;20228;-45
2023/12/30 09:19:40;;;;;;;14.23;2.30;;;7.70;99.90;;;;;;5064150;28;20187;-45
2023/12/30 09:22:07;;;;;;;18.98;2.58;;;7.70;99.90;;;;;;5065788;28;20194;-46
2023/12/30 09:24:33;;;;;;;15.50;2.47;;;7.80;99.90;;;;;;5064983;28;20198;-50
2023/12/30 09:26:59;;;;;;;18.88;2.72;;;7.70;99.90;;;;;;5065887;28;20538;-50
2023/12/30 09:29:26;;;;;;;12.45;3.05;;;7.80;99.90;;;;;;5064270;28;20207;-45
2023/12/30 09:31:52;;;;;;;17.45;3.10;;;7.80;99.90;;;;;;5062541;28;20214;-51
2023/12/30 09:34:18;;;;;;;21.20;3.25;;;7.80;99.90;;;;;;5065941;28;20206;-49
2023/12/30 09:36:44;;;;;;;16.05;2.78;;;7.80;99.90;;;;;;5063763;28;20178;-50
2023/12/30 09:39:11;;;;;;;16.45;2.13;;;7.80;99.90;;;;;;5064178;28;20194;-52
2023/12/30 09:41:40;;;;;;;19.40;2.53;;;7.80;99.90;;;;;;5064305;28;20197;-50
2023/12/30 09:44:08;;;;;;;19.70;3.00;;;7.80;99.90;;;;;;5062651;28;20312;-52
2023/12/30 09:46:37;;;;;;;22.42;2.80;;;7.90;99.90;;;;;;5064651;28;20190;-43
2023/12/30 09:49:06;;;;;;;15.93;2.83;;;7.90;99.90;;;;;;5063422;28;20211;-46
2023/12/30 09:51:33;;;;;;;17.20;2.33;;;7.90;99.90;;;;;;5065917;28;20194;-52
2023/12/30 09:53:59;;;;;;;13.65;2.72;;;8.00;99.90;;;;;;5063867;28;20181;-45
2023/12/30 09:56:26;;;;;;;15.55;2.45;;;8.00;99.90;;;;;;5064402;28;20273;-45
2023/12/30 09:58:55;;;;;;;13.55;2.50;;;8.10;99.90;;;;;;5063374;28;20232;-49
2023/12/30 10:01:21;;;;;;;14.43;2.80;;;8.10;99.90;;;;;;5065540;28;20195;-53
2023/12/30 10:03:47;;;;;;;15.35;2.65;;;8.20;99.90;;;;;;5062850;28;20259;-47
2023/12/30 10:06:17;;;;;;;12.45;2.38;;;8.10;99.90;;;;;;5064840;28;20540;-46
2023/12/30 10:08:44;;;;;;;18.95;2.30;;;8.20;99.90;;;;;;5064639;28;20202;-48
2023/12/30 10:11:10;;;;;;;17.48;2.65;;;8.20;99.90;;;;;;5062925;28;20218;-52
2023/12/30 10:13:37;;;;;;;14.80;2.50;;;8.30;99.90;;;;;;5062892;28;20170;-52
2023/12/30 10:16:05;;;;;;;20.15;2.97;;;8.30;99.90;;;;;;5064154;28;20645;-47
2023/12/30 10:18:38;;;;;;;15.18;2.80;;;8.30;99.90;;;;;;5064010;28;20197;-50
2023/12/30 10:21:05;;;;;;;16.95;3.10;;;8.40;99.90;;;;;;5062180;28;20206;-50
2023/12/30 10:23:33;;;;;;;12.60;2.47;;;8.40;99.90;;;;;;5062958;28;20197;-52
2023/12/30 10:25:59;;;;;;;9.02;2.13;;;8.40;99.90;;;;;;5064024;28;20211;-48
2023/12/30 10:28:25;;;;;;;14.05;2.70;;;8.40;99.90;;;;;;5076115;28;20234;-49
2023/12/30 10:31:05;;;;;;;14.45;2.60;;;8.40;99.90;;;;;;5060466;28;20214;-48
2023/12/30 10:33:36;;;;;;;16.35;2.58;;;8.40;99.90;;;;;;5061670;28;20280;-56
2023/12/30 10:36:06;;;;;;;14.32;2.72;;;8.50;99.90;;;;;;5063221;28;20960;-50
2023/12/30 10:38:34;;;;;;;15.90;2.60;;;8.40;99.90;;;;;;5061202;28;20182;-50
2023/12/30 10:41:00;;;;;;;16.10;2.60;;;8.40;99.90;;;;;;5062906;28;20229;-54
2023/12/30 10:43:26;;;;;;;17.25;2.80;;;8.40;99.90;;;;;;5046162;28;20265;-48
2023/12/30 10:46:03;;;;;;;14.75;2.72;;;8.40;99.90;;;;;;5063327;28;20267;-52
2023/12/30 10:48:33;;;;;;;12.57;2.53;;;8.50;99.90;;;;;;5064214;28;20202;-53
2023/12/30 10:51:01;;;;;;;15.45;2.53;;;8.50;99.90;;;;;;5062553;28;20273;-52
2023/12/30 10:54:14;;;;;;;14.60;2.50;;;8.50;99.90;;;;;;5064433;28;20197;-49
2023/12/30 10:56:46;;;;;;;15.15;2.70;;;8.50;99.90;;;;;;5062061;28;20186;-51
2023/12/30 10:59:13;;;;;;;15.73;2.53;;;8.50;99.90;;;;;;5062372;28;20237;-47
2023/12/30 11:01:40;;;;;;;12.32;2.33;;;8.60;99.90;;;;;;5063858;28;20380;-53
2023/12/30 11:04:11;;;;;;;14.52;2.70;;;8.60;99.90;;;;;;5061770;28;20190;-50
2023/12/30 11:06:43;;;;;;;17.23;2.83;;;8.60;99.90;;;;;;5060571;28;20198;-49
2023/12/30 11:09:11;;;;;;;12.00;2.17;;;8.70;99.90;;;;;;5062254;28;20225;-49
2023/12/30 11:11:52;;;;;;;14.88;2.90;;;8.70;99.90;;;;;;5062451;28;20194;-45
2023/12/30 11:14:18;;;;;;;12.23;2.25;;;8.70;99.90;;;;;;5060940;28;20187;-50
2023/12/30 11:16:45;;;;;;;15.30;3.22;;;8.70;99.90;;;;;;5061680;28;20273;-55
2023/12/30 11:19:28;;;;;;;12.98;2.50;;;8.80;99.90;;;;;;5063743;28;20434;-52
2023/12/30 11:22:00;;;;;;;17.80;2.70;;;8.80;99.90;;;;;;5062857;28;20200;-51
2023/12/30 11:24:26;;;;;;;10.70;2.30;;;8.80;99.90;;;;;;5062713;28;20190;-52
2023/12/30 11:26:54;;;;;;;10.38;2.05;;;8.80;99.90;;;;;;5062039;28;20195;-51
2023/12/30 11:29:25;;;;;;;11.60;2.20;;;8.80;99.90;;;;;;5063852;28;20207;-49
2023/12/30 11:31:53;;;;;;;10.85;2.35;;;8.80;99.90;;;;;;5061529;28;20210;-53
2023/12/30 11:34:20;;;;;;;16.35;2.28;;;8.80;99.90;;;;;;5062753;28;20305;-52
2023/12/30 11:36:47;;;;;;;11.88;2.55;;;8.80;99.90;;;;;;5062031;28;20189;-52
2023/12/30 11:39:32;;;;;;;15.95;2.75;;;8.90;99.90;;;;;;5063641;28;20679;-51
2023/12/30 11:42:00;;;;;;;14.90;2.33;;;8.80;99.90;;;;;;5061322;28;20281;-51
2023/12/30 11:44:27;;;;;;;11.13;2.28;;;8.80;99.90;;;;;;5062542;28;20717;-52
2023/12/30 11:46:53;;;;;;;14.43;2.50;;;8.80;99.90;;;;;;5062745;28;20195;-49
2023/12/30 11:49:23;;;;;;;17.15;2.40;;;8.80;99.90;;;;;;5061250;28;20218;-54
2023/12/30 11:51:50;;;;;;;16.13;2.75;;;8.90;99.90;;;;;;5060729;28;20186;-51
2023/12/30 11:54:15;;;;;;;11.52;2.80;;;8.90;99.90;;;;;;5061541;28;20214;-50
2023/12/30 11:56:43;;;;;;;18.42;2.75;;;9.00;99.90;;;;;;5063869;28;20494;-48
2023/12/30 11:59:09;;;;;;;15.50;3.20;;;9.10;99.90;;;;;;5061362;28;20188;-52
2023/12/30 12:01:35;;;;;;;15.10;3.47;;;9.20;99.90;;;;;;5061024;28;20221;-52
2023/12/30 12:04:01;;;;;;;19.92;5.43;;;9.20;99.90;;;;;;5060868;28;20182;-46
2023/12/30 12:06:27;;;;;;;11.38;2.70;;;9.30;99.90;;;;;;5059194;28;20236;-50
2023/12/30 12:08:53;;;;;;;20.92;3.40;;;9.30;99.90;;;;;;5061169;28;20531;-51
2023/12/30 12:11:19;;;;;;;20.05;2.90;;;9.30;99.90;;;;;;5044546;28;20301;-52
2023/12/30 12:13:46;;;;;;;10.85;2.45;;;9.40;99.90;;;;;;5062238;28;21014;-53
2023/12/30 12:16:12;;;;;;;17.33;3.35;;;9.30;99.90;;;;;;5062218;28;20187;-53
2023/12/30 12:18:39;;;;;;;14.23;2.65;;;9.30;99.90;;;;;;5060815;28;20671;-53
2023/12/30 12:21:13;;;;;;;14.95;2.83;;;9.30;99.90;;;;;;5060707;28;20182;-50
2023/12/30 12:23:41;;;;;;;10.13;2.47;;;9.20;99.90;;;;;;5063569;28;20555;-49
2023/12/30 12:26:08;;;;;;;13.85;2.55;;;9.10;99.90;;;;;;5059355;28;20190;-53
2023/12/30 12:28:34;;;;;;;13.98;2.55;;;9.10;99.90;;;;;;5076744;28;20210;-50
2023/12/30 12:31:07;;;;;;;22.60;3.80;;;9.00;99.90;;;;;;5062122;28;20204;-56
2023/12/30 12:33:34;;;;;;;15.07;2.83;;;9.00;99.90;;;;;;5061960;28;20186;-50
2023/12/30 12:36:01;;;;;;;11.02;2.38;;;8.90;99.90;;;;;;5059955;28;20197;-48
2023/12/30 12:38:27;;;;;;;11.07;2.60;;;8.90;99.90;;;;;;5061062;28;20555;-47
2023/12/30 12:40:53;;;;;;;9.68;2.50;;;8.90;99.90;;;;;;5064086;28;20194;-48
2023/12/30 12:43:19;;;;;;;12.73;2.33;;;8.90;99.90;;;;;;5060068;28;20237;-48
2023/12/30 12:45:45;;;;;;;11.23;2.60;;;8.90;99.90;;;;;;5061269;28;20205;-50